Terminal Aerodrome Forecast
Issued by NWS

Home | Current Version | Previous Version | Text Only | Print | Product List | Glossary Off
Versions: 1 2 3 4 5 6 7 8 9 10 11 12 13 14 15 16 17

000
FTUS43 KMPX 291447 AAA
TAFRWF
TAF AMD
KRWF 291447Z 2915/3012 10010KT P6SM SCT020 BKN250
      TEMPO 2915/2918 BKN019
     FM291800 18010KT P6SM SCT040 SCT150
     FM292300 VRB03KT P6SM SCT040 BKN090
      TEMPO 2923/3002 4SM -TSRA BKN040CB OVC080
     FM300600 30004KT P6SM SCT090=

USA.gov is the U.S. government's official web portal to all federal, state and local government web resources and services.